createdAt,value
2023-04-09T00:00:34.241Z,6.12
2023-04-09T00:05:40.366Z,5.95
2023-04-09T00:10:43.086Z,5.85
2023-04-09T00:15:47.409Z,5.96
2023-04-09T00:20:50.386Z,5.93
2023-04-09T00:25:53.192Z,5.92
2023-04-09T00:30:57.304Z,5.82
2023-04-09T00:36:00.141Z,5.65
2023-04-09T00:41:03.014Z,5.56
2023-04-09T00:46:07.325Z,5.61
2023-04-09T00:51:10.256Z,5.67
2023-04-09T00:56:13.708Z,5.52
2023-04-09T01:01:17.877Z,5.38
2023-04-09T01:06:27.021Z,5.35
2023-04-09T01:11:35.276Z,5.41
2023-04-09T01:16:40.451Z,5.31
2023-04-09T01:21:45.552Z,5.21
2023-04-09T01:26:57.152Z,5.29
2023-04-09T01:32:05.931Z,5.18
2023-04-09T01:37:09.586Z,5.17
2023-04-09T01:42:12.847Z,5.11
2023-04-09T01:47:17.149Z,5.10
2023-04-09T01:52:19.926Z,4.84
2023-04-09T01:57:22.692Z,4.99
2023-04-09T02:02:31.421Z,4.97
2023-04-09T02:07:39.321Z,4.92
2023-04-09T02:12:46.429Z,4.94
2023-04-09T02:17:52.136Z,4.65
2023-04-09T02:22:54.923Z,4.81
2023-04-09T02:27:57.717Z,4.73
2023-04-09T02:33:01.922Z,4.66
2023-04-09T02:38:04.821Z,4.68
2023-04-09T02:43:07.713Z,4.43
2023-04-09T02:48:11.879Z,4.52
2023-04-09T02:53:14.620Z,4.48
2023-04-09T02:58:17.341Z,4.39
2023-04-09T03:03:21.663Z,4.56
2023-04-09T03:08:24.543Z,4.33
2023-04-09T03:13:28.675Z,4.39
2023-04-09T03:18:32.767Z,4.35
2023-04-09T03:23:35.855Z,4.23
2023-04-09T03:28:38.563Z,4.20
2023-04-09T03:33:42.871Z,4.33
2023-04-09T03:38:46.880Z,4.10
2023-04-09T03:44:00.890Z,4.17
2023-04-09T03:49:10.718Z,4.12
2023-04-09T03:54:17.764Z,4.08
2023-04-09T03:59:21.814Z,3.85
2023-04-09T04:04:26.122Z,3.92
2023-04-09T04:09:32.392Z,3.96
2023-04-09T04:14:43.325Z,3.89
2023-04-09T04:19:58.157Z,3.70
2023-04-09T04:25:00.975Z,3.79
2023-04-09T04:30:04.998Z,3.91
2023-04-09T04:35:29.392Z,3.73
2023-04-09T04:40:36.766Z,3.68
2023-04-09T04:45:39.806Z,3.76
2023-04-09T04:50:48.453Z,3.77
2023-04-09T04:55:52.215Z,3.74
2023-04-09T05:01:00.382Z,3.65
2023-04-09T05:06:05.197Z,3.75
2023-04-09T05:11:16.904Z,3.47
2023-04-09T05:16:23.312Z,3.67
2023-04-09T05:21:35.773Z,3.70
2023-04-09T05:26:38.941Z,3.89
2023-04-09T05:31:42.954Z,3.70
2023-04-09T05:36:59.800Z,3.78
2023-04-09T05:42:02.677Z,4.01
2023-04-09T05:47:09.863Z,3.89
2023-04-09T05:52:21.450Z,4.01
2023-04-09T05:57:25.108Z,4.18
2023-04-09T06:02:33.911Z,4.10
2023-04-09T06:07:38.100Z,4.29
2023-04-09T06:12:40.901Z,4.39
2023-04-09T06:17:43.683Z,4.45
2023-04-09T06:22:47.789Z,4.50
2023-04-09T06:27:50.495Z,4.64
2023-04-09T06:32:55.105Z,4.86
2023-04-09T06:37:59.658Z,4.94
2023-04-09T06:43:02.433Z,4.96
2023-04-09T06:48:12.933Z,5.09
2023-04-09T06:53:17.610Z,5.20
2023-04-09T06:58:21.007Z,5.45
2023-04-09T07:03:24.176Z,5.56
2023-04-09T07:08:28.727Z,5.58
2023-04-09T07:13:33.177Z,5.82
2023-04-09T07:18:36.223Z,5.96
2023-04-09T07:23:40.685Z,6.12
2023-04-09T07:28:43.421Z,6.39
2023-04-09T07:33:46.147Z,6.53
2023-04-09T07:38:50.301Z,6.75
2023-04-09T07:43:53.057Z,6.81
2023-04-09T07:48:55.863Z,7.21
2023-04-09T07:53:59.957Z,7.33
2023-04-09T07:59:03.223Z,7.59
2023-04-09T08:04:06.734Z,7.87
2023-04-09T08:09:11.028Z,7.90
2023-04-09T08:14:13.848Z,8.09
2023-04-09T08:19:17.794Z,8.29
2023-04-09T08:24:21.927Z,8.61
2023-04-09T08:29:25.011Z,8.70
2023-04-09T08:34:28.056Z,8.92
2023-04-09T08:39:32.142Z,9.10
2023-04-09T08:44:34.927Z,9.29
2023-04-09T08:49:37.887Z,9.52
2023-04-09T08:54:42.026Z,9.65
2023-04-09T08:59:44.784Z,9.85
2023-04-09T09:04:48.779Z,10.10
2023-04-09T09:09:54.234Z,10.09
2023-04-09T09:14:56.964Z,10.34
2023-04-09T09:19:59.799Z,10.52
2023-04-09T09:25:04.100Z,10.75
2023-04-09T09:30:08.518Z,10.86
2023-04-09T09:35:11.278Z,11.06
2023-04-09T09:40:27.832Z,11.29
2023-04-09T09:45:30.549Z,11.31
2023-04-09T09:50:35.266Z,11.43
2023-04-09T09:55:41.489Z,11.67
2023-04-09T10:00:46.294Z,11.22
2023-04-09T10:05:50.026Z,11.86
2023-04-09T10:10:54.346Z,11.60
2023-04-09T10:15:57.469Z,11.45
2023-04-09T10:21:03.191Z,12.38
2023-04-09T10:26:07.920Z,12.09
2023-04-09T10:31:10.681Z,12.33
2023-04-09T10:36:14.327Z,12.70
2023-04-09T10:41:24.126Z,13.29
2023-04-09T10:46:28.125Z,12.49
2023-04-09T10:51:36.089Z,12.35
2023-04-09T10:56:40.212Z,12.23
2023-04-09T11:01:53.651Z,12.41
2023-04-09T11:06:57.304Z,12.86
2023-04-09T11:12:01.839Z,13.39
2023-04-09T11:17:04.643Z,13.30
2023-04-09T11:22:07.544Z,13.21
2023-04-09T11:27:11.661Z,12.76
2023-04-09T11:32:14.437Z,12.68
2023-04-09T11:37:17.745Z,12.87
2023-04-09T11:42:22.722Z,12.90
2023-04-09T11:47:25.578Z,13.46
2023-04-09T11:52:30.646Z,13.23
2023-04-09T11:57:43.942Z,14.47
2023-04-09T12:02:48.197Z,14.29
2023-04-09T12:07:56.315Z,13.67
2023-04-09T12:13:04.530Z,13.33
2023-04-09T12:18:09.491Z,13.36
2023-04-09T12:23:13.077Z,13.21
2023-04-09T12:28:18.313Z,13.77
2023-04-09T12:33:21.716Z,13.97
2023-04-09T12:38:24.432Z,13.62
2023-04-09T12:43:28.512Z,13.70
2023-04-09T12:48:31.272Z,13.60
2023-04-09T12:53:34.037Z,13.57
2023-04-09T12:58:38.536Z,13.56
2023-04-09T13:03:42.135Z,13.59
2023-04-09T13:08:45.153Z,13.52
2023-04-09T13:13:49.346Z,13.17
2023-04-09T13:18:52.763Z,13.37
2023-04-09T13:23:55.650Z,13.33
2023-04-09T13:28:59.746Z,13.43
2023-04-09T13:34:02.832Z,13.19
2023-04-09T13:39:05.906Z,13.30
2023-04-09T13:44:10.203Z,13.41
2023-04-09T13:49:13.001Z,13.35
2023-04-09T13:54:15.682Z,13.34
2023-04-09T13:59:19.793Z,13.63
2023-04-09T14:04:22.667Z,13.84
2023-04-09T14:09:25.442Z,14.49
2023-04-09T14:14:29.566Z,14.07
2023-04-09T14:19:32.295Z,14.06
2023-04-09T14:24:39.745Z,14.00
2023-04-09T14:29:44.314Z,14.16
2023-04-09T14:34:47.074Z,14.12
2023-04-09T14:39:49.877Z,14.04
2023-04-09T14:44:53.986Z,14.03
2023-04-09T14:49:56.761Z,14.48
2023-04-09T14:54:59.932Z,14.05
2023-04-09T15:00:04.750Z,14.47
2023-04-09T15:05:08.640Z,14.36
2023-04-09T15:10:11.891Z,14.07
2023-04-09T15:15:16.214Z,14.04
2023-04-09T15:20:19.158Z,14.04
2023-04-09T15:25:22.060Z,13.86
2023-04-09T15:30:26.479Z,14.08
2023-04-09T15:35:29.369Z,13.96
2023-04-09T15:40:32.405Z,13.95
2023-04-09T15:45:36.498Z,14.07
2023-04-09T15:50:39.639Z,13.92
2023-04-09T15:55:42.505Z,13.84
2023-04-09T16:00:46.695Z,13.98
2023-04-09T16:05:49.559Z,13.80
2023-04-09T16:10:53.082Z,13.73
2023-04-09T16:15:57.156Z,13.59
2023-04-09T16:20:59.988Z,13.52
2023-04-09T16:26:03.138Z,13.54
2023-04-09T16:31:07.615Z,13.50
2023-04-09T16:36:10.486Z,13.40
2023-04-09T16:41:13.321Z,13.32
2023-04-09T16:46:17.488Z,13.30
2023-04-09T16:51:20.537Z,13.25
2023-04-09T16:56:23.333Z,13.23
2023-04-09T17:01:27.528Z,13.30
2023-04-09T17:06:30.855Z,13.27
2023-04-09T17:11:33.642Z,13.17
2023-04-09T17:16:38.058Z,13.03
2023-04-09T17:21:41.869Z,13.25
2023-04-09T17:26:44.678Z,13.09
2023-04-09T17:31:50.666Z,12.91
2023-04-09T17:36:56.807Z,12.76
2023-04-09T17:42:00.791Z,12.63
2023-04-09T17:47:05.013Z,12.51
2023-04-09T17:52:07.824Z,12.37
2023-04-09T17:57:10.676Z,12.18
2023-04-09T18:02:14.900Z,12.15
2023-04-09T18:07:18.130Z,12.11
2023-04-09T18:12:20.860Z,11.87
2023-04-09T18:17:26.276Z,11.84
2023-04-09T18:22:29.070Z,11.39
2023-04-09T18:27:31.806Z,11.38
2023-04-09T18:32:36.001Z,11.12
2023-04-09T18:37:38.985Z,10.95
2023-04-09T18:42:41.734Z,10.86
2023-04-09T18:47:45.974Z,10.77
2023-04-09T18:52:48.713Z,10.46
2023-04-09T18:57:52.556Z,10.48
2023-04-09T19:02:56.804Z,10.36
2023-04-09T19:08:00.262Z,10.10
2023-04-09T19:13:03.351Z,10.04
2023-04-09T19:18:07.750Z,9.92
2023-04-09T19:23:10.773Z,9.73
2023-04-09T19:28:13.506Z,9.67
2023-04-09T19:33:17.798Z,9.65
2023-04-09T19:38:21.207Z,9.38
2023-04-09T19:43:23.937Z,9.42
2023-04-09T19:48:28.074Z,9.37
2023-04-09T19:53:30.971Z,9.36
2023-04-09T19:58:33.723Z,9.25
2023-04-09T20:03:38.021Z,9.14
2023-04-09T20:08:40.874Z,9.07
2023-04-09T20:13:43.945Z,8.96
2023-04-09T20:18:48.039Z,8.92
2023-04-09T20:23:50.781Z,8.85
2023-04-09T20:28:53.755Z,8.71
2023-04-09T20:33:58.029Z,8.62
2023-04-09T20:39:00.972Z,8.60
2023-04-09T20:44:03.736Z,8.50
2023-04-09T20:49:07.838Z,8.50
2023-04-09T20:54:10.549Z,8.43
2023-04-09T20:59:13.310Z,8.38
2023-04-09T21:04:17.601Z,8.22
2023-04-09T21:09:20.546Z,8.15
2023-04-09T21:14:23.307Z,8.02
2023-04-09T21:19:27.385Z,8.06
2023-04-09T21:24:31.121Z,7.88
2023-04-09T21:29:34.288Z,7.94
2023-04-09T21:34:39.492Z,7.87
2023-04-09T21:39:42.256Z,7.78
2023-04-09T21:44:44.991Z,7.73
2023-04-09T21:49:50.165Z,7.62
2023-04-09T21:54:52.926Z,7.63
2023-04-09T21:59:55.722Z,7.58
2023-04-09T22:05:01.115Z,7.47
2023-04-09T22:10:03.978Z,7.46
2023-04-09T22:15:07.298Z,7.40
2023-04-09T22:20:11.822Z,7.16
2023-04-09T22:25:14.962Z,7.31
2023-04-09T22:30:17.712Z,7.28
2023-04-09T22:35:21.770Z,7.17
2023-04-09T22:40:24.442Z,7.03
2023-04-09T22:45:27.968Z,6.99
2023-04-09T22:50:32.363Z,6.98
2023-04-09T22:55:35.428Z,6.84
2023-04-09T23:00:38.162Z,6.82
2023-04-09T23:05:42.367Z,6.72
2023-04-09T23:10:45.204Z,6.60
2023-04-09T23:15:47.942Z,6.43
2023-04-09T23:20:52.056Z,6.34
2023-04-09T23:25:54.968Z,6.44
2023-04-09T23:30:57.818Z,6.37
2023-04-09T23:36:01.963Z,6.31
2023-04-09T23:41:04.953Z,6.14
2023-04-09T23:46:07.949Z,6.07
2023-04-09T23:51:17.886Z,6.08
2023-04-09T23:56:20.622Z,6.10
